createdAt,value
2018-09-13T00:00:45.881Z,15.07
2018-09-13T00:05:42.771Z,15.17
2018-09-13T00:10:39.331Z,15.14
2018-09-13T00:15:34.907Z,15.07
2018-09-13T00:20:31.607Z,15.21
2018-09-13T00:25:28.244Z,15.14
2018-09-13T00:30:23.495Z,15.14
2018-09-13T00:35:20.685Z,15.11
2018-09-13T00:40:16.276Z,14.68
2018-09-13T00:45:12.893Z,14.66
2018-09-13T00:50:08.256Z,14.55
2018-09-13T00:55:04.364Z,14.53
2018-09-13T01:00:00.203Z,14.40
2018-09-13T01:04:56.089Z,14.58
2018-09-13T01:09:51.982Z,14.44
2018-09-13T01:14:47.747Z,14.33
2018-09-13T01:19:45.029Z,14.53
2018-09-13T01:24:41.543Z,14.44
2018-09-13T01:29:38.059Z,14.28
2018-09-13T01:34:33.587Z,14.33
2018-09-13T01:39:29.310Z,14.33
2018-09-13T01:44:26.082Z,14.28
2018-09-13T01:49:21.452Z,14.22
2018-09-13T01:54:17.362Z,14.29
2018-09-13T01:59:13.617Z,14.23
2018-09-13T02:04:09.395Z,14.28
2018-09-13T02:09:05.512Z,14.36
2018-09-13T02:14:02.374Z,14.17
2018-09-13T02:18:58.151Z,14.17
2018-09-13T02:23:54.184Z,14.28
2018-09-13T02:28:50.996Z,14.26
2018-09-13T02:33:46.791Z,14.26
2018-09-13T02:38:43.473Z,14.23
2018-09-13T02:43:38.913Z,14.17
2018-09-13T02:48:35.396Z,14.26
2018-09-13T02:53:31.230Z,14.32
2018-09-13T02:58:27.255Z,14.14
2018-09-13T03:03:22.913Z,14.23
2018-09-13T03:08:19.671Z,14.29
2018-09-13T03:13:16.666Z,14.29
2018-09-13T03:18:13.519Z,14.29
2018-09-13T03:23:09.371Z,14.23
2018-09-13T03:28:05.543Z,14.15
2018-09-13T03:33:01.330Z,14.41
2018-09-13T03:37:57.147Z,14.30
2018-09-13T03:42:54.328Z,14.36
2018-09-13T03:47:50.865Z,14.29
2018-09-13T03:52:46.905Z,14.28
2018-09-13T03:57:42.982Z,14.32
2018-09-13T04:02:38.892Z,14.29
2018-09-13T04:07:34.981Z,14.29
2018-09-13T04:12:30.865Z,14.22
2018-09-13T04:17:27.745Z,14.29
2018-09-13T04:22:23.179Z,14.28
2018-09-13T04:27:20.221Z,14.33
2018-09-13T04:32:16.583Z,14.28
2018-09-13T04:37:12.241Z,14.43
2018-09-13T04:42:08.725Z,14.48
2018-09-13T04:47:04.336Z,14.51
2018-09-13T04:52:00.171Z,14.47
2018-09-13T04:56:56.805Z,14.40
2018-09-13T05:01:53.242Z,14.51
2018-09-13T05:06:50.051Z,14.48
2018-09-13T05:11:45.647Z,14.32
2018-09-13T05:16:41.462Z,14.22
2018-09-13T05:21:37.112Z,14.29
2018-09-13T05:26:33.343Z,14.32
2018-09-13T05:31:29.262Z,14.28
2018-09-13T05:36:25.418Z,14.29
2018-09-13T05:41:22.658Z,14.04
2018-09-13T05:46:18.311Z,14.03
2018-09-13T05:51:14.445Z,14.03
2018-09-13T05:56:09.982Z,14.04
2018-09-13T06:01:05.821Z,14.07
2018-09-13T06:06:01.496Z,14.10
2018-09-13T06:10:58.823Z,14.25
2018-09-13T06:15:54.509Z,14.18
2018-09-13T06:20:50.153Z,14.30
2018-09-13T06:25:45.952Z,14.20
2018-09-13T06:30:41.921Z,14.28
2018-09-13T06:35:37.529Z,14.41
2018-09-13T06:40:34.141Z,14.36
2018-09-13T06:45:29.924Z,14.43
2018-09-13T06:50:25.985Z,14.58
2018-09-13T06:55:21.841Z,14.45
2018-09-13T07:00:19.316Z,14.60
2018-09-13T07:05:15.325Z,14.59
2018-09-13T07:10:10.954Z,14.55
2018-09-13T07:15:06.666Z,14.47
2018-09-13T07:20:03.472Z,14.37
2018-09-13T07:24:59.214Z,14.35
2018-09-13T07:29:55.046Z,14.41
2018-09-13T07:34:50.913Z,14.55
2018-09-13T07:39:48.025Z,14.81
2018-09-13T07:44:44.864Z,14.81
2018-09-13T07:49:42.093Z,14.68
2018-09-13T07:54:37.847Z,14.65
2018-09-13T07:59:33.780Z,14.73
2018-09-13T08:04:30.611Z,14.88
2018-09-13T08:09:26.238Z,15.06
2018-09-13T08:14:22.246Z,14.97
2018-09-13T08:19:18.518Z,14.96
2018-09-13T08:24:14.468Z,14.94
2018-09-13T08:29:10.502Z,15.21
2018-09-13T08:34:06.839Z,15.28
2018-09-13T08:39:03.884Z,15.27
2018-09-13T08:43:59.511Z,15.35
2018-09-13T08:48:55.847Z,15.46
2018-09-13T08:53:53.470Z,15.64
2018-09-13T08:58:50.280Z,15.52
2018-09-13T09:03:46.051Z,15.51
2018-09-13T09:08:42.900Z,15.79
2018-09-13T09:13:41.970Z,15.77
2018-09-13T09:18:39.789Z,15.72
2018-09-13T09:23:35.139Z,15.68
2018-09-13T09:28:31.245Z,15.86
2018-09-13T09:33:27.782Z,16.31
2018-09-13T09:38:24.029Z,16.56
2018-09-13T09:43:19.920Z,16.41
2018-09-13T09:48:16.032Z,16.42
2018-09-13T09:53:11.610Z,16.23
2018-09-13T09:58:07.467Z,16.50
2018-09-13T10:03:03.556Z,16.60
2018-09-13T10:07:59.623Z,16.66
2018-09-13T10:12:55.412Z,16.69
2018-09-13T10:17:51.306Z,16.75
2018-09-13T10:22:47.529Z,16.86
2018-09-13T10:27:43.837Z,17.02
2018-09-13T10:32:41.103Z,17.22
2018-09-13T10:37:36.469Z,17.09
2018-09-13T10:42:32.487Z,17.27
2018-09-13T10:47:28.896Z,17.34
2018-09-13T10:52:25.722Z,17.65
2018-09-13T10:57:22.162Z,18.28
2018-09-13T11:02:18.980Z,18.16
2018-09-13T11:07:15.721Z,18.86
2018-09-13T11:12:11.240Z,18.73
2018-09-13T11:17:06.228Z,17.95
2018-09-13T11:22:01.475Z,17.89
2018-09-13T11:26:57.495Z,17.97
2018-09-13T11:31:53.202Z,18.18
2018-09-13T11:36:49.450Z,18.11
2018-09-13T11:41:45.376Z,17.98
2018-09-13T11:46:42.032Z,17.97
2018-09-13T11:51:37.261Z,17.79
2018-09-13T11:56:32.652Z,17.63
2018-09-13T12:01:28.150Z,17.67
2018-09-13T12:06:24.059Z,17.52
2018-09-13T12:11:21.419Z,17.74
2018-09-13T12:16:18.097Z,18.20
2018-09-13T12:21:15.338Z,18.25
2018-09-13T12:26:11.340Z,17.80
2018-09-13T12:31:07.083Z,18.15
2018-09-13T12:36:03.365Z,18.47
2018-09-13T12:40:59.264Z,18.15
2018-09-13T12:45:55.412Z,18.22
2018-09-13T12:50:51.255Z,18.29
2018-09-13T12:55:47.315Z,18.22
2018-09-13T13:00:43.049Z,18.55
2018-09-13T13:05:39.372Z,18.88
2018-09-13T13:10:34.878Z,18.68
2018-09-13T13:15:30.641Z,18.38
2018-09-13T13:20:26.439Z,18.40
2018-09-13T13:25:22.952Z,18.50
2018-09-13T13:30:18.985Z,18.26
2018-09-13T13:35:14.597Z,18.28
2018-09-13T13:40:10.652Z,18.41
2018-09-13T13:45:07.610Z,18.47
2018-09-13T13:50:03.532Z,18.44
2018-09-13T13:54:59.344Z,18.71
2018-09-13T13:59:56.544Z,18.52
2018-09-13T14:04:51.957Z,18.38
2018-09-13T14:09:47.593Z,18.53
2018-09-13T14:14:43.443Z,18.55
2018-09-13T14:19:39.461Z,18.75
2018-09-13T14:24:35.953Z,18.89
2018-09-13T14:29:31.694Z,18.81
2018-09-13T14:34:28.534Z,18.75
2018-09-13T14:39:24.167Z,18.70
2018-09-13T14:44:20.445Z,18.58
2018-09-13T14:49:16.286Z,18.43
2018-09-13T14:54:12.731Z,18.43
2018-09-13T14:59:08.457Z,18.43
2018-09-13T15:04:03.971Z,18.52
2018-09-13T15:09:01.132Z,18.45
2018-09-13T15:13:57.738Z,18.55
2018-09-13T15:18:53.614Z,18.50
2018-09-13T15:23:50.672Z,18.65
2018-09-13T15:28:47.249Z,18.71
2018-09-13T15:33:42.611Z,18.80
2018-09-13T15:38:39.603Z,18.55
2018-09-13T15:43:36.096Z,18.62
2018-09-13T15:48:32.929Z,18.63
2018-09-13T15:53:28.367Z,18.55
2018-09-13T15:58:24.222Z,18.52
2018-09-13T16:03:21.188Z,18.43
2018-09-13T16:08:16.611Z,18.45
2018-09-13T16:13:13.158Z,18.55
2018-09-13T16:18:09.483Z,18.68
2018-09-13T16:23:05.198Z,18.70
2018-09-13T16:28:01.048Z,18.58
2018-09-13T16:32:57.649Z,18.45
2018-09-13T16:37:52.821Z,18.37
2018-09-13T16:42:50.041Z,18.13
2018-09-13T16:47:45.728Z,18.11
2018-09-13T16:52:42.221Z,17.90
2018-09-13T16:57:37.654Z,17.86
2018-09-13T17:02:34.349Z,17.82
2018-09-13T17:07:31.147Z,17.76
2018-09-13T17:12:26.746Z,17.68
2018-09-13T17:17:23.535Z,17.67
2018-09-13T17:22:19.757Z,17.67
2018-09-13T17:27:15.275Z,17.59
2018-09-13T17:32:10.827Z,17.54
2018-09-13T17:37:07.729Z,17.42
2018-09-13T17:42:03.069Z,17.33
2018-09-13T17:46:59.309Z,17.34
2018-09-13T17:51:54.963Z,17.22
2018-09-13T17:56:50.740Z,17.20
2018-09-13T18:01:46.845Z,17.15
2018-09-13T18:06:42.549Z,17.02
2018-09-13T18:11:39.511Z,16.93
2018-09-13T18:16:35.770Z,16.94
2018-09-13T18:21:31.040Z,16.81
2018-09-13T18:26:27.141Z,16.86
2018-09-13T18:31:23.045Z,16.65
2018-09-13T18:36:19.067Z,16.53
2018-09-13T18:41:14.425Z,16.54
2018-09-13T18:46:10.408Z,16.35
2018-09-13T18:51:05.930Z,16.28
2018-09-13T18:56:01.558Z,16.21
2018-09-13T19:00:57.776Z,16.24
2018-09-13T19:05:54.628Z,15.98
2018-09-13T19:10:50.100Z,16.00
2018-09-13T19:15:46.675Z,15.86
2018-09-13T19:20:43.556Z,15.82
2018-09-13T19:25:40.341Z,15.88
2018-09-13T19:30:35.823Z,15.82
2018-09-13T19:35:31.393Z,15.70
2018-09-13T19:40:27.441Z,15.73
2018-09-13T19:45:22.764Z,15.73
2018-09-13T19:50:19.713Z,15.70
2018-09-13T19:55:15.145Z,15.68
2018-09-13T20:00:11.271Z,15.57
2018-09-13T20:05:07.377Z,15.79
2018-09-13T20:10:03.177Z,15.43
2018-09-13T20:14:58.682Z,15.35
2018-09-13T20:19:54.458Z,15.25
2018-09-13T20:24:50.041Z,15.18
2018-09-13T20:29:46.382Z,15.07
2018-09-13T20:34:42.925Z,15.02
2018-09-13T20:39:38.591Z,14.92
2018-09-13T20:44:34.035Z,14.79
2018-09-13T20:49:29.768Z,14.62
2018-09-13T20:54:25.595Z,14.65
2018-09-13T20:59:22.369Z,14.58
2018-09-13T21:04:17.727Z,14.50
2018-09-13T21:09:13.638Z,14.55
2018-09-13T21:14:10.324Z,14.59
2018-09-13T21:19:07.427Z,14.53
2018-09-13T21:24:02.848Z,14.58
2018-09-13T21:28:58.853Z,14.54
2018-09-13T21:33:55.686Z,14.53
2018-09-13T21:38:51.464Z,14.59
2018-09-13T21:43:47.418Z,14.55
2018-09-13T21:48:43.119Z,14.55
2018-09-13T21:53:39.836Z,14.55
2018-09-13T21:58:35.293Z,14.53
2018-09-13T22:03:31.097Z,14.55
2018-09-13T22:08:27.810Z,14.58
2018-09-13T22:13:23.559Z,14.50
2018-09-13T22:18:19.181Z,14.33
2018-09-13T22:23:14.952Z,14.36
2018-09-13T22:28:10.834Z,14.23
2018-09-13T22:33:06.447Z,14.15
2018-09-13T22:38:04.178Z,14.00
2018-09-13T22:43:00.029Z,14.04
2018-09-13T22:47:55.630Z,13.89
2018-09-13T22:52:51.278Z,13.79
2018-09-13T22:57:47.149Z,13.74
2018-09-13T23:02:43.583Z,13.75
2018-09-13T23:07:39.273Z,13.59
2018-09-13T23:12:35.042Z,13.63
2018-09-13T23:17:31.257Z,13.68
2018-09-13T23:22:27.101Z,13.52
2018-09-13T23:27:22.844Z,13.57
2018-09-13T23:32:18.593Z,13.39
2018-09-13T23:37:14.209Z,13.16
2018-09-13T23:42:10.452Z,13.22
2018-09-13T23:47:06.288Z,13.25
2018-09-13T23:52:03.056Z,13.19
2018-09-13T23:56:58.850Z,13.13
